sensor_id;sensor_type;location;lat;lon;timestamp;P1;durP1;ratioP1;P2;durP2;ratioP2
61702;SDS011;47622;47.726;3.298;2023-04-22T00:02:04;18.77;;;13.68;;
61702;SDS011;47622;47.726;3.298;2023-04-22T00:04:30;19.48;;;14.20;;
61702;SDS011;47622;47.726;3.298;2023-04-22T00:06:56;17.13;;;12.88;;
61702;SDS011;47622;47.726;3.298;2023-04-22T00:09:22;16.38;;;11.82;;
61702;SDS011;47622;47.726;3.298;2023-04-22T00:11:48;16.25;;;12.10;;
61702;SDS011;47622;47.726;3.298;2023-04-22T00:14:13;15.43;;;12.05;;
61702;SDS011;47622;47.726;3.298;2023-04-22T00:16:39;17.63;;;12.80;;
61702;SDS011;47622;47.726;3.298;2023-04-22T00:19:05;19.40;;;13.27;;
61702;SDS011;47622;47.726;3.298;2023-04-22T00:21:30;17.63;;;11.77;;
61702;SDS011;47622;47.726;3.298;2023-04-22T00:23:56;15.68;;;11.77;;
61702;SDS011;47622;47.726;3.298;2023-04-22T00:26:24;16.77;;;13.23;;
61702;SDS011;47622;47.726;3.298;2023-04-22T00:28:49;18.27;;;13.00;;
61702;SDS011;47622;47.726;3.298;2023-04-22T00:31:15;16.73;;;13.07;;
61702;SDS011;47622;47.726;3.298;2023-04-22T00:33:40;15.48;;;11.98;;
61702;SDS011;47622;47.726;3.298;2023-04-22T00:36:06;17.58;;;12.90;;
61702;SDS011;47622;47.726;3.298;2023-04-22T00:38:32;17.55;;;13.32;;
61702;SDS011;47622;47.726;3.298;2023-04-22T00:40:58;19.17;;;13.23;;
61702;SDS011;47622;47.726;3.298;2023-04-22T00:43:23;18.77;;;13.27;;
61702;SDS011;47622;47.726;3.298;2023-04-22T00:45:49;16.50;;;12.45;;
61702;SDS011;47622;47.726;3.298;2023-04-22T00:48:15;15.52;;;10.82;;
61702;SDS011;47622;47.726;3.298;2023-04-22T00:50:40;16.42;;;12.07;;
61702;SDS011;47622;47.726;3.298;2023-04-22T00:53:06;16.70;;;12.57;;
61702;SDS011;47622;47.726;3.298;2023-04-22T00:55:32;18.15;;;12.35;;
61702;SDS011;47622;47.726;3.298;2023-04-22T00:57:59;17.63;;;12.40;;
61702;SDS011;47622;47.726;3.298;2023-04-22T01:00:27;15.90;;;11.77;;
61702;SDS011;47622;47.726;3.298;2023-04-22T01:02:53;15.45;;;11.00;;
61702;SDS011;47622;47.726;3.298;2023-04-22T01:05:19;17.15;;;11.88;;
61702;SDS011;47622;47.726;3.298;2023-04-22T01:07:45;20.48;;;11.35;;
61702;SDS011;47622;47.726;3.298;2023-04-22T01:10:11;16.73;;;12.18;;
61702;SDS011;47622;47.726;3.298;2023-04-22T01:12:36;17.50;;;12.15;;
61702;SDS011;47622;47.726;3.298;2023-04-22T01:15:03;18.92;;;12.77;;
61702;SDS011;47622;47.726;3.298;2023-04-22T01:17:29;18.35;;;12.10;;
61702;SDS011;47622;47.726;3.298;2023-04-22T01:19:58;15.88;;;11.68;;
61702;SDS011;47622;47.726;3.298;2023-04-22T01:22:24;16.73;;;11.90;;
61702;SDS011;47622;47.726;3.298;2023-04-22T01:24:52;17.33;;;12.65;;
61702;SDS011;47622;47.726;3.298;2023-04-22T01:27:18;19.02;;;13.68;;
61702;SDS011;47622;47.726;3.298;2023-04-22T01:29:44;20.33;;;14.68;;
61702;SDS011;47622;47.726;3.298;2023-04-22T01:32:11;22.00;;;15.73;;
61702;SDS011;47622;47.726;3.298;2023-04-22T01:34:37;24.10;;;15.70;;
61702;SDS011;47622;47.726;3.298;2023-04-22T01:37:03;24.02;;;15.20;;
61702;SDS011;47622;47.726;3.298;2023-04-22T01:39:28;22.95;;;15.07;;
61702;SDS011;47622;47.726;3.298;2023-04-22T01:41:56;22.27;;;15.35;;
61702;SDS011;47622;47.726;3.298;2023-04-22T01:44:22;20.88;;;15.65;;
61702;SDS011;47622;47.726;3.298;2023-04-22T01:46:48;22.95;;;15.35;;
61702;SDS011;47622;47.726;3.298;2023-04-22T01:49:14;20.77;;;14.90;;
61702;SDS011;47622;47.726;3.298;2023-04-22T01:51:40;20.52;;;14.73;;
61702;SDS011;47622;47.726;3.298;2023-04-22T01:54:05;20.45;;;15.00;;
61702;SDS011;47622;47.726;3.298;2023-04-22T01:56:32;23.20;;;15.77;;
61702;SDS011;47622;47.726;3.298;2023-04-22T01:58:58;20.83;;;15.15;;
61702;SDS011;47622;47.726;3.298;2023-04-22T02:01:24;19.30;;;13.85;;
61702;SDS011;47622;47.726;3.298;2023-04-22T02:03:49;20.90;;;13.82;;
61702;SDS011;47622;47.726;3.298;2023-04-22T02:06:16;19.05;;;13.88;;
61702;SDS011;47622;47.726;3.298;2023-04-22T02:08:42;19.80;;;14.65;;
61702;SDS011;47622;47.726;3.298;2023-04-22T02:11:07;17.77;;;13.02;;
61702;SDS011;47622;47.726;3.298;2023-04-22T02:13:37;20.45;;;14.25;;
61702;SDS011;47622;47.726;3.298;2023-04-22T02:16:04;19.00;;;13.68;;
61702;SDS011;47622;47.726;3.298;2023-04-22T02:18:30;16.48;;;12.25;;
61702;SDS011;47622;47.726;3.298;2023-04-22T02:20:56;17.52;;;12.63;;
61702;SDS011;47622;47.726;3.298;2023-04-22T02:23:22;19.05;;;13.38;;
61702;SDS011;47622;47.726;3.298;2023-04-22T02:25:48;17.25;;;12.73;;
61702;SDS011;47622;47.726;3.298;2023-04-22T02:28:15;19.08;;;12.73;;
61702;SDS011;47622;47.726;3.298;2023-04-22T02:30:41;17.42;;;12.20;;
61702;SDS011;47622;47.726;3.298;2023-04-22T02:33:06;18.02;;;12.20;;
61702;SDS011;47622;47.726;3.298;2023-04-22T02:35:32;14.93;;;11.07;;
61702;SDS011;47622;47.726;3.298;2023-04-22T02:37:58;16.23;;;10.25;;
61702;SDS011;47622;47.726;3.298;2023-04-22T02:40:24;13.10;;;10.23;;
61702;SDS011;47622;47.726;3.298;2023-04-22T02:42:49;16.00;;;11.50;;
61702;SDS011;47622;47.726;3.298;2023-04-22T02:45:15;17.90;;;10.85;;
61702;SDS011;47622;47.726;3.298;2023-04-22T02:47:41;13.43;;;10.60;;
61702;SDS011;47622;47.726;3.298;2023-04-22T02:50:07;15.07;;;11.10;;
61702;SDS011;47622;47.726;3.298;2023-04-22T02:52:33;18.40;;;11.88;;
61702;SDS011;47622;47.726;3.298;2023-04-22T02:54:59;14.82;;;10.65;;
61702;SDS011;47622;47.726;3.298;2023-04-22T02:57:25;15.15;;;10.25;;
61702;SDS011;47622;47.726;3.298;2023-04-22T02:59:51;13.05;;;10.27;;
61702;SDS011;47622;47.726;3.298;2023-04-22T03:02:17;14.55;;;9.57;;
61702;SDS011;47622;47.726;3.298;2023-04-22T03:04:42;11.77;;;8.77;;
61702;SDS011;47622;47.726;3.298;2023-04-22T03:07:09;12.20;;;8.52;;
61702;SDS011;47622;47.726;3.298;2023-04-22T03:09:35;10.95;;;8.20;;
61702;SDS011;47622;47.726;3.298;2023-04-22T03:12:00;11.32;;;8.70;;
61702;SDS011;47622;47.726;3.298;2023-04-22T03:14:27;12.05;;;7.85;;
61702;SDS011;47622;47.726;3.298;2023-04-22T03:16:53;11.40;;;7.82;;
61702;SDS011;47622;47.726;3.298;2023-04-22T03:19:19;11.60;;;7.65;;
61702;SDS011;47622;47.726;3.298;2023-04-22T03:21:44;10.93;;;8.23;;
61702;SDS011;47622;47.726;3.298;2023-04-22T03:24:11;11.73;;;7.13;;
61702;SDS011;47622;47.726;3.298;2023-04-22T03:26:37;10.05;;;7.70;;
61702;SDS011;47622;47.726;3.298;2023-04-22T03:29:03;10.60;;;7.70;;
61702;SDS011;47622;47.726;3.298;2023-04-22T03:31:28;10.38;;;7.50;;
61702;SDS011;47622;47.726;3.298;2023-04-22T03:33:54;9.35;;;7.78;;
61702;SDS011;47622;47.726;3.298;2023-04-22T03:36:20;11.05;;;7.55;;
61702;SDS011;47622;47.726;3.298;2023-04-22T03:38:45;12.27;;;7.03;;
61702;SDS011;47622;47.726;3.298;2023-04-22T03:41:11;9.80;;;6.40;;
61702;SDS011;47622;47.726;3.298;2023-04-22T03:43:37;9.20;;;7.05;;
61702;SDS011;47622;47.726;3.298;2023-04-22T03:46:03;10.80;;;7.22;;
61702;SDS011;47622;47.726;3.298;2023-04-22T03:48:29;8.57;;;6.43;;
61702;SDS011;47622;47.726;3.298;2023-04-22T03:50:59;8.43;;;6.10;;
61702;SDS011;47622;47.726;3.298;2023-04-22T03:53:24;9.25;;;6.18;;
61702;SDS011;47622;47.726;3.298;2023-04-22T03:55:50;9.05;;;6.38;;
61702;SDS011;47622;47.726;3.298;2023-04-22T03:58:16;8.85;;;6.15;;
61702;SDS011;47622;47.726;3.298;2023-04-22T04:00:42;7.97;;;5.65;;
61702;SDS011;47622;47.726;3.298;2023-04-22T04:03:07;10.88;;;6.10;;
61702;SDS011;47622;47.726;3.298;2023-04-22T04:05:33;8.23;;;5.80;;
61702;SDS011;47622;47.726;3.298;2023-04-22T04:07:59;8.90;;;6.13;;
61702;SDS011;47622;47.726;3.298;2023-04-22T04:10:25;8.88;;;5.95;;
61702;SDS011;47622;47.726;3.298;2023-04-22T04:12:51;9.55;;;6.03;;
61702;SDS011;47622;47.726;3.298;2023-04-22T04:15:16;7.75;;;6.00;;
61702;SDS011;47622;47.726;3.298;2023-04-22T04:17:46;7.15;;;6.03;;
61702;SDS011;47622;47.726;3.298;2023-04-22T04:20:12;7.03;;;5.40;;
61702;SDS011;47622;47.726;3.298;2023-04-22T04:22:39;9.32;;;6.07;;
61702;SDS011;47622;47.726;3.298;2023-04-22T04:25:04;8.63;;;6.30;;
61702;SDS011;47622;47.726;3.298;2023-04-22T04:27:31;7.18;;;5.40;;
61702;SDS011;47622;47.726;3.298;2023-04-22T04:29:57;7.28;;;5.63;;
61702;SDS011;47622;47.726;3.298;2023-04-22T04:32:22;8.20;;;5.13;;
61702;SDS011;47622;47.726;3.298;2023-04-22T04:34:49;7.40;;;5.20;;
61702;SDS011;47622;47.726;3.298;2023-04-22T04:37:15;6.50;;;4.90;;
61702;SDS011;47622;47.726;3.298;2023-04-22T04:39:41;8.40;;;5.05;;
61702;SDS011;47622;47.726;3.298;2023-04-22T04:42:07;7.85;;;5.03;;
61702;SDS011;47622;47.726;3.298;2023-04-22T04:44:36;7.13;;;5.20;;
61702;SDS011;47622;47.726;3.298;2023-04-22T04:47:01;7.85;;;5.05;;
61702;SDS011;47622;47.726;3.298;2023-04-22T04:49:28;6.28;;;5.03;;
61702;SDS011;47622;47.726;3.298;2023-04-22T04:51:55;8.10;;;5.10;;
61702;SDS011;47622;47.726;3.298;2023-04-22T04:54:21;7.45;;;4.78;;
61702;SDS011;47622;47.726;3.298;2023-04-22T04:56:47;7.63;;;4.55;;
61702;SDS011;47622;47.726;3.298;2023-04-22T04:59:12;5.65;;;4.72;;
61702;SDS011;47622;47.726;3.298;2023-04-22T05:01:38;8.68;;;4.60;;
61702;SDS011;47622;47.726;3.298;2023-04-22T05:04:04;6.43;;;4.45;;
61702;SDS011;47622;47.726;3.298;2023-04-22T05:06:29;5.45;;;4.78;;
61702;SDS011;47622;47.726;3.298;2023-04-22T05:08:58;6.18;;;4.32;;
61702;SDS011;47622;47.726;3.298;2023-04-22T05:11:23;7.32;;;4.68;;
61702;SDS011;47622;47.726;3.298;2023-04-22T05:13:49;6.22;;;4.38;;
61702;SDS011;47622;47.726;3.298;2023-04-22T05:16:15;7.80;;;4.50;;
61702;SDS011;47622;47.726;3.298;2023-04-22T05:18:41;6.18;;;4.78;;
61702;SDS011;47622;47.726;3.298;2023-04-22T05:21:07;7.70;;;4.68;;
61702;SDS011;47622;47.726;3.298;2023-04-22T05:23:33;5.38;;;4.40;;
61702;SDS011;47622;47.726;3.298;2023-04-22T05:25:59;8.50;;;5.22;;
61702;SDS011;47622;47.726;3.298;2023-04-22T05:28:25;7.18;;;4.88;;
61702;SDS011;47622;47.726;3.298;2023-04-22T05:30:50;6.40;;;4.70;;
61702;SDS011;47622;47.726;3.298;2023-04-22T05:33:16;5.72;;;4.47;;
61702;SDS011;47622;47.726;3.298;2023-04-22T05:35:42;6.95;;;4.68;;
61702;SDS011;47622;47.726;3.298;2023-04-22T05:38:07;7.00;;;4.70;;
61702;SDS011;47622;47.726;3.298;2023-04-22T05:40:33;9.07;;;4.78;;
61702;SDS011;47622;47.726;3.298;2023-04-22T05:42:59;5.57;;;4.68;;
61702;SDS011;47622;47.726;3.298;2023-04-22T05:45:24;7.20;;;4.88;;
61702;SDS011;47622;47.726;3.298;2023-04-22T05:47:50;5.50;;;4.50;;
61702;SDS011;47622;47.726;3.298;2023-04-22T05:50:16;7.43;;;5.00;;
61702;SDS011;47622;47.726;3.298;2023-04-22T05:52:41;8.90;;;5.15;;
61702;SDS011;47622;47.726;3.298;2023-04-22T05:55:07;10.25;;;4.70;;
61702;SDS011;47622;47.726;3.298;2023-04-22T05:57:34;8.38;;;4.90;;
61702;SDS011;47622;47.726;3.298;2023-04-22T06:00:00;6.80;;;5.03;;
61702;SDS011;47622;47.726;3.298;2023-04-22T06:02:27;8.68;;;4.80;;
61702;SDS011;47622;47.726;3.298;2023-04-22T06:04:53;9.10;;;5.07;;
61702;SDS011;47622;47.726;3.298;2023-04-22T06:07:18;6.65;;;5.03;;
61702;SDS011;47622;47.726;3.298;2023-04-22T06:09:45;7.55;;;5.43;;
61702;SDS011;47622;47.726;3.298;2023-04-22T06:12:10;9.13;;;5.38;;
61702;SDS011;47622;47.726;3.298;2023-04-22T06:14:37;10.05;;;5.43;;
61702;SDS011;47622;47.726;3.298;2023-04-22T06:17:03;7.78;;;5.65;;
61702;SDS011;47622;47.726;3.298;2023-04-22T06:19:29;8.18;;;5.10;;
61702;SDS011;47622;47.726;3.298;2023-04-22T06:21:55;9.75;;;5.47;;
61702;SDS011;47622;47.726;3.298;2023-04-22T06:24:21;8.05;;;5.30;;
61702;SDS011;47622;47.726;3.298;2023-04-22T06:26:47;7.80;;;5.93;;
61702;SDS011;47622;47.726;3.298;2023-04-22T06:29:13;6.72;;;5.10;;
61702;SDS011;47622;47.726;3.298;2023-04-22T06:31:38;10.23;;;5.68;;
61702;SDS011;47622;47.726;3.298;2023-04-22T06:34:06;6.60;;;4.40;;
61702;SDS011;47622;47.726;3.298;2023-04-22T06:36:32;7.07;;;4.70;;
61702;SDS011;47622;47.726;3.298;2023-04-22T06:39:02;10.00;;;5.20;;
61702;SDS011;47622;47.726;3.298;2023-04-22T06:41:29;6.40;;;5.07;;
61702;SDS011;47622;47.726;3.298;2023-04-22T06:43:55;8.13;;;5.45;;
61702;SDS011;47622;47.726;3.298;2023-04-22T06:46:21;9.38;;;5.80;;
61702;SDS011;47622;47.726;3.298;2023-04-22T06:48:47;6.90;;;4.90;;
61702;SDS011;47622;47.726;3.298;2023-04-22T06:51:13;7.47;;;5.22;;
61702;SDS011;47622;47.726;3.298;2023-04-22T06:53:38;8.27;;;5.40;;
61702;SDS011;47622;47.726;3.298;2023-04-22T06:56:05;8.20;;;5.32;;
61702;SDS011;47622;47.726;3.298;2023-04-22T06:58:31;7.82;;;5.70;;
61702;SDS011;47622;47.726;3.298;2023-04-22T07:00:57;7.90;;;5.93;;
61702;SDS011;47622;47.726;3.298;2023-04-22T07:03:22;8.15;;;5.72;;
61702;SDS011;47622;47.726;3.298;2023-04-22T07:05:48;12.95;;;5.90;;
61702;SDS011;47622;47.726;3.298;2023-04-22T07:08:13;6.53;;;5.50;;
61702;SDS011;47622;47.726;3.298;2023-04-22T07:10:41;7.00;;;5.97;;
61702;SDS011;47622;47.726;3.298;2023-04-22T07:13:06;7.82;;;5.80;;
61702;SDS011;47622;47.726;3.298;2023-04-22T07:15:33;6.95;;;5.75;;
61702;SDS011;47622;47.726;3.298;2023-04-22T07:17:59;7.50;;;5.65;;
61702;SDS011;47622;47.726;3.298;2023-04-22T07:20:25;8.45;;;5.80;;
61702;SDS011;47622;47.726;3.298;2023-04-22T07:22:51;8.95;;;6.35;;
61702;SDS011;47622;47.726;3.298;2023-04-22T07:25:16;8.05;;;6.28;;
61702;SDS011;47622;47.726;3.298;2023-04-22T07:27:42;7.95;;;6.05;;
61702;SDS011;47622;47.726;3.298;2023-04-22T07:30:10;9.43;;;5.75;;
61702;SDS011;47622;47.726;3.298;2023-04-22T07:32:37;8.45;;;5.45;;
61702;SDS011;47622;47.726;3.298;2023-04-22T07:35:03;6.93;;;6.00;;
61702;SDS011;47622;47.726;3.298;2023-04-22T07:37:30;9.00;;;5.53;;
61702;SDS011;47622;47.726;3.298;2023-04-22T07:39:56;7.35;;;5.82;;
61702;SDS011;47622;47.726;3.298;2023-04-22T07:42:21;8.73;;;5.72;;
61702;SDS011;47622;47.726;3.298;2023-04-22T07:44:47;8.23;;;5.80;;
61702;SDS011;47622;47.726;3.298;2023-04-22T07:47:13;14.27;;;6.20;;
61702;SDS011;47622;47.726;3.298;2023-04-22T07:49:39;10.00;;;5.55;;
61702;SDS011;47622;47.726;3.298;2023-04-22T07:52:04;6.75;;;5.68;;
61702;SDS011;47622;47.726;3.298;2023-04-22T07:54:30;9.15;;;5.32;;
61702;SDS011;47622;47.726;3.298;2023-04-22T07:56:57;13.02;;;6.10;;
61702;SDS011;47622;47.726;3.298;2023-04-22T07:59:23;9.57;;;5.45;;
61702;SDS011;47622;47.726;3.298;2023-04-22T08:01:49;9.98;;;5.63;;
61702;SDS011;47622;47.726;3.298;2023-04-22T08:04:15;7.53;;;5.28;;
61702;SDS011;47622;47.726;3.298;2023-04-22T08:06:41;9.23;;;5.80;;
61702;SDS011;47622;47.726;3.298;2023-04-22T08:09:07;11.80;;;5.93;;
61702;SDS011;47622;47.726;3.298;2023-04-22T08:11:34;9.40;;;6.05;;
61702;SDS011;47622;47.726;3.298;2023-04-22T08:14:00;10.02;;;5.78;;
61702;SDS011;47622;47.726;3.298;2023-04-22T08:16:26;8.95;;;5.40;;
61702;SDS011;47622;47.726;3.298;2023-04-22T08:18:51;9.88;;;6.18;;
61702;SDS011;47622;47.726;3.298;2023-04-22T08:21:17;7.32;;;5.47;;
61702;SDS011;47622;47.726;3.298;2023-04-22T08:23:43;8.85;;;5.63;;
61702;SDS011;47622;47.726;3.298;2023-04-22T08:26:09;7.90;;;5.70;;
61702;SDS011;47622;47.726;3.298;2023-04-22T08:28:39;8.90;;;5.43;;
61702;SDS011;47622;47.726;3.298;2023-04-22T08:31:06;7.22;;;5.90;;
61702;SDS011;47622;47.726;3.298;2023-04-22T08:33:34;9.10;;;5.85;;
61702;SDS011;47622;47.726;3.298;2023-04-22T08:36:00;9.75;;;5.90;;
61702;SDS011;47622;47.726;3.298;2023-04-22T08:38:27;10.55;;;5.88;;
61702;SDS011;47622;47.726;3.298;2023-04-22T08:40:56;8.32;;;5.53;;
61702;SDS011;47622;47.726;3.298;2023-04-22T08:43:26;7.35;;;5.78;;
61702;SDS011;47622;47.726;3.298;2023-04-22T08:45:52;8.68;;;5.70;;
61702;SDS011;47622;47.726;3.298;2023-04-22T08:48:20;7.97;;;5.75;;
61702;SDS011;47622;47.726;3.298;2023-04-22T08:50:46;10.52;;;5.90;;
61702;SDS011;47622;47.726;3.298;2023-04-22T08:53:14;8.07;;;5.72;;
61702;SDS011;47622;47.726;3.298;2023-04-22T08:55:42;9.07;;;5.80;;
61702;SDS011;47622;47.726;3.298;2023-04-22T08:58:12;7.32;;;5.45;;
61702;SDS011;47622;47.726;3.298;2023-04-22T09:00:38;10.80;;;6.20;;
61702;SDS011;47622;47.726;3.298;2023-04-22T09:03:07;7.80;;;5.32;;
61702;SDS011;47622;47.726;3.298;2023-04-22T09:05:34;8.55;;;5.95;;
61702;SDS011;47622;47.726;3.298;2023-04-22T09:08:01;9.38;;;5.43;;
61702;SDS011;47622;47.726;3.298;2023-04-22T09:24:48;8.63;;;4.90;;
61702;SDS011;47622;47.726;3.298;2023-04-22T09:27:17;5.88;;;4.88;;
61702;SDS011;47622;47.726;3.298;2023-04-22T09:29:48;6.28;;;4.82;;
61702;SDS011;47622;47.726;3.298;2023-04-22T09:32:18;9.63;;;5.78;;
61702;SDS011;47622;47.726;3.298;2023-04-22T09:34:50;8.25;;;5.35;;
61702;SDS011;47622;47.726;3.298;2023-04-22T09:37:18;7.05;;;4.70;;
61702;SDS011;47622;47.726;3.298;2023-04-22T09:39:47;7.78;;;5.00;;
61702;SDS011;47622;47.726;3.298;2023-04-22T09:42:15;10.10;;;5.30;;
61702;SDS011;47622;47.726;3.298;2023-04-22T09:44:44;6.72;;;5.25;;
61702;SDS011;47622;47.726;3.298;2023-04-22T09:47:11;6.97;;;5.05;;
61702;SDS011;47622;47.726;3.298;2023-04-22T09:49:37;8.15;;;5.13;;
61702;SDS011;47622;47.726;3.298;2023-04-22T09:52:03;8.05;;;4.65;;
61702;SDS011;47622;47.726;3.298;2023-04-22T09:54:30;10.13;;;4.90;;
61702;SDS011;47622;47.726;3.298;2023-04-22T09:56:55;5.55;;;4.22;;
61702;SDS011;47622;47.726;3.298;2023-04-22T09:59:22;8.38;;;5.03;;
61702;SDS011;47622;47.726;3.298;2023-04-22T10:01:53;6.95;;;4.60;;
61702;SDS011;47622;47.726;3.298;2023-04-22T10:04:21;6.72;;;5.00;;
61702;SDS011;47622;47.726;3.298;2023-04-22T10:06:49;10.68;;;5.18;;
61702;SDS011;47622;47.726;3.298;2023-04-22T10:09:16;7.30;;;4.82;;
61702;SDS011;47622;47.726;3.298;2023-04-22T10:11:43;7.25;;;4.88;;
61702;SDS011;47622;47.726;3.298;2023-04-22T10:14:09;6.72;;;4.97;;
61702;SDS011;47622;47.726;3.298;2023-04-22T10:16:38;8.60;;;4.80;;
61702;SDS011;47622;47.726;3.298;2023-04-22T10:19:06;6.82;;;4.75;;
61702;SDS011;47622;47.726;3.298;2023-04-22T10:21:39;6.32;;;4.55;;
61702;SDS011;47622;47.726;3.298;2023-04-22T10:24:06;5.80;;;4.45;;
61702;SDS011;47622;47.726;3.298;2023-04-22T10:26:38;7.15;;;4.40;;
61702;SDS011;47622;47.726;3.298;2023-04-22T10:29:06;7.63;;;4.88;;
61702;SDS011;47622;47.726;3.298;2023-04-22T10:31:36;5.85;;;4.53;;
61702;SDS011;47622;47.726;3.298;2023-04-22T10:34:09;8.20;;;5.10;;
61702;SDS011;47622;47.726;3.298;2023-04-22T10:39:24;6.38;;;3.97;;
61702;SDS011;47622;47.726;3.298;2023-04-22T10:41:51;6.47;;;4.38;;
61702;SDS011;47622;47.726;3.298;2023-04-22T10:44:19;7.15;;;4.50;;
61702;SDS011;47622;47.726;3.298;2023-04-22T10:49:25;7.28;;;4.60;;
61702;SDS011;47622;47.726;3.298;2023-04-22T10:51:53;4.88;;;4.40;;
61702;SDS011;47622;47.726;3.298;2023-04-22T10:57:06;7.45;;;4.63;;
61702;SDS011;47622;47.726;3.298;2023-04-22T10:59:45;5.88;;;3.95;;
61702;SDS011;47622;47.726;3.298;2023-04-22T11:02:22;7.72;;;4.30;;
61702;SDS011;47622;47.726;3.298;2023-04-22T11:04:49;5.55;;;4.50;;
61702;SDS011;47622;47.726;3.298;2023-04-22T11:10:00;8.15;;;4.47;;
61702;SDS011;47622;47.726;3.298;2023-04-22T11:15:15;8.88;;;4.40;;
61702;SDS011;47622;47.726;3.298;2023-04-22T11:17:44;5.05;;;4.50;;
61702;SDS011;47622;47.726;3.298;2023-04-22T11:20:12;5.28;;;4.10;;
61702;SDS011;47622;47.726;3.298;2023-04-22T11:22:42;9.23;;;4.13;;
61702;SDS011;47622;47.726;3.298;2023-04-22T11:25:09;7.45;;;4.53;;
61702;SDS011;47622;47.726;3.298;2023-04-22T11:27:35;7.50;;;4.38;;
61702;SDS011;47622;47.726;3.298;2023-04-22T11:32:32;4.78;;;3.75;;
61702;SDS011;47622;47.726;3.298;2023-04-22T11:35:05;6.22;;;3.80;;
61702;SDS011;47622;47.726;3.298;2023-04-22T11:37:42;5.47;;;4.15;;
61702;SDS011;47622;47.726;3.298;2023-04-22T11:40:13;5.75;;;3.65;;
61702;SDS011;47622;47.726;3.298;2023-04-22T11:42:41;5.55;;;4.13;;
61702;SDS011;47622;47.726;3.298;2023-04-22T11:45:07;4.03;;;3.28;;
61702;SDS011;47622;47.726;3.298;2023-04-22T11:47:33;4.95;;;3.67;;
61702;SDS011;47622;47.726;3.298;2023-04-22T11:50:01;5.88;;;4.20;;
61702;SDS011;47622;47.726;3.298;2023-04-22T11:55:28;7.47;;;4.65;;
61702;SDS011;47622;47.726;3.298;2023-04-22T12:00:31;5.22;;;3.53;;
61702;SDS011;47622;47.726;3.298;2023-04-22T12:02:59;5.63;;;3.75;;
61702;SDS011;47622;47.726;3.298;2023-04-22T12:05:36;5.03;;;3.92;;
61702;SDS011;47622;47.726;3.298;2023-04-22T12:08:13;5.65;;;3.70;;
61702;SDS011;47622;47.726;3.298;2023-04-22T12:10:47;6.03;;;3.92;;
61702;SDS011;47622;47.726;3.298;2023-04-22T12:13:22;8.27;;;4.10;;
61702;SDS011;47622;47.726;3.298;2023-04-22T12:16:15;5.57;;;3.38;;
61702;SDS011;47622;47.726;3.298;2023-04-22T12:18:49;4.07;;;3.65;;
61702;SDS011;47622;47.726;3.298;2023-04-22T12:21:23;7.90;;;3.85;;
61702;SDS011;47622;47.726;3.298;2023-04-22T12:23:56;5.47;;;4.00;;
61702;SDS011;47622;47.726;3.298;2023-04-22T12:26:24;4.60;;;3.58;;
61702;SDS011;47622;47.726;3.298;2023-04-22T12:28:51;5.05;;;4.05;;
61702;SDS011;47622;47.726;3.298;2023-04-22T12:31:17;6.45;;;4.40;;
61702;SDS011;47622;47.726;3.298;2023-04-22T12:33:44;5.78;;;3.90;;
61702;SDS011;47622;47.726;3.298;2023-04-22T12:36:11;5.03;;;3.88;;
61702;SDS011;47622;47.726;3.298;2023-04-22T12:38:37;4.60;;;3.67;;
61702;SDS011;47622;47.726;3.298;2023-04-22T12:41:04;5.88;;;3.42;;
61702;SDS011;47622;47.726;3.298;2023-04-22T12:43:30;5.38;;;3.70;;
61702;SDS011;47622;47.726;3.298;2023-04-22T12:45:59;6.75;;;3.75;;
61702;SDS011;47622;47.726;3.298;2023-04-22T12:48:25;5.25;;;3.70;;
61702;SDS011;47622;47.726;3.298;2023-04-22T12:50:50;4.30;;;3.20;;
61702;SDS011;47622;47.726;3.298;2023-04-22T12:53:17;6.55;;;4.20;;
61702;SDS011;47622;47.726;3.298;2023-04-22T12:55:44;6.80;;;4.00;;
61702;SDS011;47622;47.726;3.298;2023-04-22T12:58:11;6.43;;;3.85;;
61702;SDS011;47622;47.726;3.298;2023-04-22T13:00:36;5.40;;;3.80;;
61702;SDS011;47622;47.726;3.298;2023-04-22T13:03:02;7.10;;;3.60;;
61702;SDS011;47622;47.726;3.298;2023-04-22T13:05:28;5.68;;;4.07;;
61702;SDS011;47622;47.726;3.298;2023-04-22T13:07:54;7.95;;;4.05;;
61702;SDS011;47622;47.726;3.298;2023-04-22T13:10:19;6.70;;;3.80;;
61702;SDS011;47622;47.726;3.298;2023-04-22T13:12:47;4.57;;;3.53;;
61702;SDS011;47622;47.726;3.298;2023-04-22T13:15:12;4.30;;;3.47;;
61702;SDS011;47622;47.726;3.298;2023-04-22T13:17:38;4.90;;;3.50;;
61702;SDS011;47622;47.726;3.298;2023-04-22T13:20:05;4.88;;;3.67;;
61702;SDS011;47622;47.726;3.298;2023-04-22T13:22:33;5.70;;;3.90;;
61702;SDS011;47622;47.726;3.298;2023-04-22T13:25:00;6.00;;;3.63;;
61702;SDS011;47622;47.726;3.298;2023-04-22T13:27:26;4.25;;;3.60;;
61702;SDS011;47622;47.726;3.298;2023-04-22T13:29:51;7.03;;;3.50;;
61702;SDS011;47622;47.726;3.298;2023-04-22T13:32:17;4.85;;;3.47;;
61702;SDS011;47622;47.726;3.298;2023-04-22T13:34:43;5.95;;;4.05;;
61702;SDS011;47622;47.726;3.298;2023-04-22T13:37:10;5.35;;;3.65;;
61702;SDS011;47622;47.726;3.298;2023-04-22T13:39:38;5.57;;;3.80;;
61702;SDS011;47622;47.726;3.298;2023-04-22T13:42:04;5.55;;;4.15;;
61702;SDS011;47622;47.726;3.298;2023-04-22T13:44:31;6.70;;;3.78;;
61702;SDS011;47622;47.726;3.298;2023-04-22T13:46:57;6.38;;;3.92;;
61702;SDS011;47622;47.726;3.298;2023-04-22T13:49:22;4.85;;;3.78;;
61702;SDS011;47622;47.726;3.298;2023-04-22T13:51:51;6.72;;;4.10;;
61702;SDS011;47622;47.726;3.298;2023-04-22T13:54:17;4.68;;;3.70;;
61702;SDS011;47622;47.726;3.298;2023-04-22T13:56:42;4.60;;;3.63;;
61702;SDS011;47622;47.726;3.298;2023-04-22T13:59:08;6.00;;;3.60;;
61702;SDS011;47622;47.726;3.298;2023-04-22T14:01:34;5.47;;;3.60;;
61702;SDS011;47622;47.726;3.298;2023-04-22T14:04:01;4.95;;;3.78;;
61702;SDS011;47622;47.726;3.298;2023-04-22T14:06:27;5.25;;;3.92;;
61702;SDS011;47622;47.726;3.298;2023-04-22T14:08:53;4.18;;;3.50;;
61702;SDS011;47622;47.726;3.298;2023-04-22T14:11:18;4.32;;;3.47;;
61702;SDS011;47622;47.726;3.298;2023-04-22T14:13:44;6.50;;;3.58;;
61702;SDS011;47622;47.726;3.298;2023-04-22T14:16:10;4.80;;;3.33;;
61702;SDS011;47622;47.726;3.298;2023-04-22T14:18:37;3.55;;;3.05;;
61702;SDS011;47622;47.726;3.298;2023-04-22T14:21:04;4.93;;;3.42;;
61702;SDS011;47622;47.726;3.298;2023-04-22T14:23:32;3.53;;;3.13;;
61702;SDS011;47622;47.726;3.298;2023-04-22T14:25:58;4.72;;;3.35;;
61702;SDS011;47622;47.726;3.298;2023-04-22T14:28:24;3.85;;;3.15;;
61702;SDS011;47622;47.726;3.298;2023-04-22T14:30:50;5.20;;;3.30;;
61702;SDS011;47622;47.726;3.298;2023-04-22T14:33:16;6.88;;;3.33;;
61702;SDS011;47622;47.726;3.298;2023-04-22T14:35:42;5.50;;;3.08;;
61702;SDS011;47622;47.726;3.298;2023-04-22T14:38:08;4.85;;;3.80;;
61702;SDS011;47622;47.726;3.298;2023-04-22T14:40:35;5.00;;;3.58;;
61702;SDS011;47622;47.726;3.298;2023-04-22T14:43:01;5.60;;;3.40;;
61702;SDS011;47622;47.726;3.298;2023-04-22T14:45:29;4.20;;;3.38;;
61702;SDS011;47622;47.726;3.298;2023-04-22T14:47:56;4.40;;;3.40;;
61702;SDS011;47622;47.726;3.298;2023-04-22T14:50:23;4.88;;;2.85;;
61702;SDS011;47622;47.726;3.298;2023-04-22T14:52:49;3.85;;;3.20;;
61702;SDS011;47622;47.726;3.298;2023-04-22T14:55:16;4.70;;;2.90;;
61702;SDS011;47622;47.726;3.298;2023-04-22T14:57:42;5.53;;;3.10;;
61702;SDS011;47622;47.726;3.298;2023-04-22T15:00:08;3.72;;;3.08;;
61702;SDS011;47622;47.726;3.298;2023-04-22T15:02:34;7.32;;;3.20;;
61702;SDS011;47622;47.726;3.298;2023-04-22T15:05:00;3.55;;;2.80;;
61702;SDS011;47622;47.726;3.298;2023-04-22T15:07:25;3.63;;;3.00;;
61702;SDS011;47622;47.726;3.298;2023-04-22T15:09:51;5.55;;;3.38;;
61702;SDS011;47622;47.726;3.298;2023-04-22T15:12:17;5.53;;;3.20;;
61702;SDS011;47622;47.726;3.298;2023-04-22T15:14:43;3.30;;;3.00;;